sensor_id;sensor_type;location;lat;lon;timestamp;pressure;altitude;pressure_sealevel;temperature;humidity
77263;BME280;66373;52.334;4.806;2024-01-10T00:00:30;103197.94;;;16.59;47.29
77263;BME280;66373;52.334;4.806;2024-01-10T00:02:57;103186.69;;;16.60;47.15
77263;BME280;66373;52.334;4.806;2024-01-10T00:05:24;103195.34;;;16.59;47.22
77263;BME280;66373;52.334;4.806;2024-01-10T00:07:53;103190.22;;;16.62;46.98
77263;BME280;66373;52.334;4.806;2024-01-10T00:10:20;103193.63;;;16.60;47.13
77263;BME280;66373;52.334;4.806;2024-01-10T00:12:47;103187.44;;;16.55;47.22
77263;BME280;66373;52.334;4.806;2024-01-10T00:15:15;103189.22;;;16.57;47.10
77263;BME280;66373;52.334;4.806;2024-01-10T00:17:42;103184.00;;;16.56;46.86
77263;BME280;66373;52.334;4.806;2024-01-10T00:20:09;103183.13;;;16.55;46.90
77263;BME280;66373;52.334;4.806;2024-01-10T00:22:36;103177.94;;;16.55;47.00
77263;BME280;66373;52.334;4.806;2024-01-10T00:25:05;103172.72;;;16.55;47.21
77263;BME280;66373;52.334;4.806;2024-01-10T00:27:33;103172.72;;;16.55;47.06
77263;BME280;66373;52.334;4.806;2024-01-10T00:30:00;103174.41;;;16.53;47.13
77263;BME280;66373;52.334;4.806;2024-01-10T00:32:27;103173.47;;;16.50;46.54
77263;BME280;66373;52.334;4.806;2024-01-10T00:34:54;103164.03;;;16.53;46.92
77263;BME280;66373;52.334;4.806;2024-01-10T00:37:21;103166.50;;;16.49;47.07
77263;BME280;66373;52.334;4.806;2024-01-10T00:39:49;103158.81;;;16.53;47.21
77263;BME280;66373;52.334;4.806;2024-01-10T00:42:17;103163.03;;;16.48;47.02
77263;BME280;66373;52.334;4.806;2024-01-10T00:44:44;103159.53;;;16.46;46.85
77263;BME280;66373;52.334;4.806;2024-01-10T00:47:12;103159.53;;;16.46;47.27
77263;BME280;66373;52.334;4.806;2024-01-10T00:49:39;103159.63;;;16.51;46.94
77263;BME280;66373;52.334;4.806;2024-01-10T00:52:06;103147.44;;;16.48;46.57
77263;BME280;66373;52.334;4.806;2024-01-10T00:54:33;103148.44;;;16.53;46.62
77263;BME280;66373;52.334;4.806;2024-01-10T00:57:01;103151.88;;;16.52;46.93
77263;BME280;66373;52.334;4.806;2024-01-10T00:59:29;103143.22;;;16.53;47.08
77263;BME280;66373;52.334;4.806;2024-01-10T01:01:56;103149.38;;;16.57;46.91
77263;BME280;66373;52.334;4.806;2024-01-10T01:04:23;103143.31;;;16.56;46.93
77263;BME280;66373;52.334;4.806;2024-01-10T01:06:51;103153.00;;;16.63;46.89
77263;BME280;66373;52.334;4.806;2024-01-10T01:09:18;103145.19;;;16.63;46.94
77263;BME280;66373;52.334;4.806;2024-01-10T01:11:45;103150.47;;;16.67;46.78
77263;BME280;66373;52.334;4.806;2024-01-10T01:14:12;103145.16;;;16.62;46.76
77263;BME280;66373;52.334;4.806;2024-01-10T01:16:41;103151.38;;;16.69;46.78
77263;BME280;66373;52.334;4.806;2024-01-10T01:19:08;103149.66;;;16.69;46.72
77263;BME280;66373;52.334;4.806;2024-01-10T01:21:35;103154.81;;;16.68;46.74
77263;BME280;66373;52.334;4.806;2024-01-10T01:24:03;103149.72;;;16.72;46.75
77263;BME280;66373;52.334;4.806;2024-01-10T01:26:30;103154.03;;;16.72;46.75
77263;BME280;66373;52.334;4.806;2024-01-10T01:28:57;103145.47;;;16.76;46.76
77263;BME280;66373;52.334;4.806;2024-01-10T01:31:24;103148.91;;;16.75;46.56
77263;BME280;66373;52.334;4.806;2024-01-10T01:33:53;103148.97;;;16.78;46.69
77263;BME280;66373;52.334;4.806;2024-01-10T01:36:20;103146.41;;;16.79;46.59
77263;BME280;66373;52.334;4.806;2024-01-10T01:38:47;103143.78;;;16.78;46.61
77263;BME280;66373;52.334;4.806;2024-01-10T01:41:15;103151.63;;;16.79;46.76
77263;BME280;66373;52.334;4.806;2024-01-10T01:43:43;103143.78;;;16.78;46.62
77263;BME280;66373;52.334;4.806;2024-01-10T01:46:11;103140.38;;;16.80;46.47
77263;BME280;66373;52.334;4.806;2024-01-10T01:48:38;103144.69;;;16.80;46.55
77263;BME280;66373;52.334;4.806;2024-01-10T01:51:08;103138.66;;;16.81;46.39
77263;BME280;66373;52.334;4.806;2024-01-10T01:53:36;103140.41;;;16.82;46.58
77263;BME280;66373;52.334;4.806;2024-01-10T01:56:06;103139.56;;;16.83;46.16
77263;BME280;66373;52.334;4.806;2024-01-10T01:58:35;103140.47;;;16.85;46.34
77263;BME280;66373;52.334;4.806;2024-01-10T02:01:03;103130.06;;;16.85;46.33
77263;BME280;66373;52.334;4.806;2024-01-10T02:03:31;103127.38;;;16.80;46.28
77263;BME280;66373;52.334;4.806;2024-01-10T02:05:58;103139.63;;;16.86;46.31
77263;BME280;66373;52.334;4.806;2024-01-10T02:08:28;103131.81;;;16.86;46.31
77263;BME280;66373;52.334;4.806;2024-01-10T02:10:55;103130.97;;;16.87;46.21
77263;BME280;66373;52.334;4.806;2024-01-10T02:13:22;103131.78;;;16.84;46.34
77263;BME280;66373;52.334;4.806;2024-01-10T02:15:50;103128.31;;;16.84;46.17
77263;BME280;66373;52.334;4.806;2024-01-10T02:18:18;103124.75;;;16.79;46.16
77263;BME280;66373;52.334;4.806;2024-01-10T02:20:45;103136.19;;;16.87;46.13
77263;BME280;66373;52.334;4.806;2024-01-10T02:23:13;103130.94;;;16.85;46.19
77263;BME280;66373;52.334;4.806;2024-01-10T02:25:42;103123.13;;;16.84;46.11
77263;BME280;66373;52.334;4.806;2024-01-10T02:28:09;103104.81;;;16.79;46.14
77263;BME280;66373;52.334;4.806;2024-01-10T02:30:36;103104.84;;;16.81;46.24
77263;BME280;66373;52.334;4.806;2024-01-10T02:33:03;103112.66;;;16.81;46.20
77263;BME280;66373;52.334;4.806;2024-01-10T02:35:31;103113.53;;;16.81;46.21
77263;BME280;66373;52.334;4.806;2024-01-10T02:37:59;103115.25;;;16.81;46.24
77263;BME280;66373;52.334;4.806;2024-01-10T02:40:26;103107.47;;;16.81;46.18
77263;BME280;66373;52.334;4.806;2024-01-10T02:42:55;103105.69;;;16.80;46.19
77263;BME280;66373;52.334;4.806;2024-01-10T02:45:22;103102.31;;;16.84;46.06
77263;BME280;66373;52.334;4.806;2024-01-10T02:47:49;103103.16;;;16.83;46.10
77263;BME280;66373;52.334;4.806;2024-01-10T02:50:17;103100.47;;;16.78;46.05
77263;BME280;66373;52.334;4.806;2024-01-10T02:52:44;103097.91;;;16.80;45.92
77263;BME280;66373;52.334;4.806;2024-01-10T02:55:11;103097.09;;;16.82;45.89
77263;BME280;66373;52.334;4.806;2024-01-10T02:57:38;103090.03;;;16.77;45.86
77263;BME280;66373;52.334;4.806;2024-01-10T03:00:08;103100.50;;;16.80;45.93
77263;BME280;66373;52.334;4.806;2024-01-10T03:02:35;103092.69;;;16.78;45.99
77263;BME280;66373;52.334;4.806;2024-01-10T03:05:03;103087.44;;;16.77;46.02
77263;BME280;66373;52.334;4.806;2024-01-10T03:07:30;103087.44;;;16.77;45.92
77263;BME280;66373;52.334;4.806;2024-01-10T03:09:57;103083.97;;;16.76;45.94
77263;BME280;66373;52.334;4.806;2024-01-10T03:12:24;103077.91;;;16.76;45.70
77263;BME280;66373;52.334;4.806;2024-01-10T03:14:51;103082.19;;;16.74;45.90
77263;BME280;66373;52.334;4.806;2024-01-10T03:17:20;103081.28;;;16.72;45.91
77263;BME280;66373;52.334;4.806;2024-01-10T03:19:47;103074.31;;;16.71;46.00
77263;BME280;66373;52.334;4.806;2024-01-10T03:22:15;103070.03;;;16.73;45.84
77263;BME280;66373;52.334;4.806;2024-01-10T03:24:42;103074.34;;;16.72;45.81
77263;BME280;66373;52.334;4.806;2024-01-10T03:27:09;103070.84;;;16.70;45.83
77263;BME280;66373;52.334;4.806;2024-01-10T03:29:36;103073.47;;;16.72;45.76
77263;BME280;66373;52.334;4.806;2024-01-10T03:32:04;103071.66;;;16.68;45.55
77263;BME280;66373;52.334;4.806;2024-01-10T03:34:32;103076.00;;;16.69;45.69
77263;BME280;66373;52.334;4.806;2024-01-10T03:37:00;103075.94;;;16.66;45.77
77263;BME280;66373;52.334;4.806;2024-01-10T03:39:27;103077.69;;;16.67;45.90
77263;BME280;66373;52.334;4.806;2024-01-10T03:41:54;103065.56;;;16.66;45.48
77263;BME280;66373;52.334;4.806;2024-01-10T03:44:21;103068.16;;;16.66;45.92
77263;BME280;66373;52.334;4.806;2024-01-10T03:46:48;103067.28;;;16.65;45.91
77263;BME280;66373;52.334;4.806;2024-01-10T03:49:15;103054.22;;;16.62;45.81
77263;BME280;66373;52.334;4.806;2024-01-10T03:51:44;103055.91;;;16.60;45.80
77263;BME280;66373;52.334;4.806;2024-01-10T03:54:11;103056.78;;;16.60;45.72
77263;BME280;66373;52.334;4.806;2024-01-10T03:56:39;103053.28;;;16.58;45.94
77263;BME280;66373;52.334;4.806;2024-01-10T03:59:06;103048.00;;;16.55;45.73
77263;BME280;66373;52.334;4.806;2024-01-10T04:01:33;103049.84;;;16.59;45.53
77263;BME280;66373;52.334;4.806;2024-01-10T04:04:00;103038.56;;;16.59;45.91
77263;BME280;66373;52.334;4.806;2024-01-10T04:06:27;103045.44;;;16.57;45.55
77263;BME280;66373;52.334;4.806;2024-01-10T04:08:56;103041.97;;;16.56;45.69
77263;BME280;66373;52.334;4.806;2024-01-10T04:11:24;103040.25;;;16.57;45.67
77263;BME280;66373;52.334;4.806;2024-01-10T04:13:51;103037.63;;;16.55;45.33
77263;BME280;66373;52.334;4.806;2024-01-10T04:16:18;103034.09;;;16.53;45.65
77263;BME280;66373;52.334;4.806;2024-01-10T04:18:45;103041.06;;;16.54;45.49
77263;BME280;66373;52.334;4.806;2024-01-10T04:21:13;103039.31;;;16.53;45.76
77263;BME280;66373;52.334;4.806;2024-01-10T04:23:40;103044.50;;;16.53;45.85
77263;BME280;66373;52.334;4.806;2024-01-10T04:26:08;103040.94;;;16.48;45.75
77263;BME280;66373;52.334;4.806;2024-01-10T04:28:35;103038.38;;;16.50;45.37
77263;BME280;66373;52.334;4.806;2024-01-10T04:31:05;103042.69;;;16.49;45.47
77263;BME280;66373;52.334;4.806;2024-01-10T04:33:32;103039.22;;;16.49;45.82
77263;BME280;66373;52.334;4.806;2024-01-10T04:36:00;103036.56;;;16.47;45.43
77263;BME280;66373;52.334;4.806;2024-01-10T04:38:27;103033.94;;;16.46;45.74
77263;BME280;66373;52.334;4.806;2024-01-10T04:40:54;103044.34;;;16.46;45.83
77263;BME280;66373;52.334;4.806;2024-01-10T04:43:23;103033.91;;;16.44;45.70
77263;BME280;66373;52.334;4.806;2024-01-10T04:45:50;103041.69;;;16.43;45.69
77263;BME280;66373;52.334;4.806;2024-01-10T04:48:17;103040.78;;;16.42;45.34
77263;BME280;66373;52.334;4.806;2024-01-10T04:50:44;103033.84;;;16.41;45.74
77263;BME280;66373;52.334;4.806;2024-01-10T04:53:11;103041.63;;;16.41;45.54
77263;BME280;66373;52.334;4.806;2024-01-10T04:55:38;103033.78;;;16.38;46.14
77263;BME280;66373;52.334;4.806;2024-01-10T04:58:06;103025.13;;;16.38;45.65
77263;BME280;66373;52.334;4.806;2024-01-10T05:00:34;103024.28;;;16.39;45.80
77263;BME280;66373;52.334;4.806;2024-01-10T05:03:01;103018.16;;;16.35;45.69
77263;BME280;66373;52.334;4.806;2024-01-10T05:05:29;103025.06;;;16.35;45.55
77263;BME280;66373;52.334;4.806;2024-01-10T05:07:56;103042.38;;;16.34;45.50
77263;BME280;66373;52.334;4.806;2024-01-10T05:10:23;103038.09;;;16.36;45.49
77263;BME280;66373;52.334;4.806;2024-01-10T05:12:50;103023.28;;;16.32;45.11
77263;BME280;66373;52.334;4.806;2024-01-10T05:15:17;103038.88;;;16.32;45.91
77263;BME280;66373;52.334;4.806;2024-01-10T05:17:46;103031.94;;;16.31;45.96
77263;BME280;66373;52.334;4.806;2024-01-10T05:20:13;103011.09;;;16.28;45.53
77263;BME280;66373;52.334;4.806;2024-01-10T05:22:40;103012.81;;;16.27;45.52
77263;BME280;66373;52.334;4.806;2024-01-10T05:25:08;103012.84;;;16.29;45.51
77263;BME280;66373;52.334;4.806;2024-01-10T05:27:35;103009.41;;;16.30;45.89
77263;BME280;66373;52.334;4.806;2024-01-10T05:30:02;103019.72;;;16.27;45.63
77263;BME280;66373;52.334;4.806;2024-01-10T05:32:29;103020.59;;;16.27;45.50
77263;BME280;66373;52.334;4.806;2024-01-10T05:34:58;103020.56;;;16.26;45.36
77263;BME280;66373;52.334;4.806;2024-01-10T05:37:26;103009.25;;;16.24;45.51
77263;BME280;66373;52.334;4.806;2024-01-10T05:39:53;103010.13;;;16.24;45.37
77263;BME280;66373;52.334;4.806;2024-01-10T05:42:20;103004.91;;;16.23;45.32
77263;BME280;66373;52.334;4.806;2024-01-10T05:44:47;103002.28;;;16.21;45.65
77263;BME280;66373;52.334;4.806;2024-01-10T05:47:14;103010.94;;;16.22;45.66
77263;BME280;66373;52.334;4.806;2024-01-10T05:49:42;103019.59;;;16.21;45.59
77263;BME280;66373;52.334;4.806;2024-01-10T05:52:10;103004.88;;;16.21;45.33
77263;BME280;66373;52.334;4.806;2024-01-10T05:54:38;102989.25;;;16.20;45.66
77263;BME280;66373;52.334;4.806;2024-01-10T05:57:05;102989.22;;;16.18;45.25
77263;BME280;66373;52.334;4.806;2024-01-10T05:59:33;103001.34;;;16.18;45.51
77263;BME280;66373;52.334;4.806;2024-01-10T06:02:02;103014.31;;;16.18;45.50
77263;BME280;66373;52.334;4.806;2024-01-10T06:04:30;103007.38;;;16.17;45.58
77263;BME280;66373;52.334;4.806;2024-01-10T06:06:58;103002.13;;;16.14;45.55
77263;BME280;66373;52.334;4.806;2024-01-10T06:09:27;103014.28;;;16.16;45.38
77263;BME280;66373;52.334;4.806;2024-01-10T06:11:54;103011.66;;;16.15;45.37
77263;BME280;66373;52.334;4.806;2024-01-10T06:14:21;103017.69;;;16.14;45.44
77263;BME280;66373;52.334;4.806;2024-01-10T06:16:48;103007.28;;;16.12;45.84
77263;BME280;66373;52.334;4.806;2024-01-10T06:19:15;103016.78;;;16.12;45.82
77263;BME280;66373;52.334;4.806;2024-01-10T06:21:44;103017.66;;;16.11;45.92
77263;BME280;66373;52.334;4.806;2024-01-10T06:24:11;103012.47;;;16.11;45.72
77263;BME280;66373;52.334;4.806;2024-01-10T06:26:40;103015.91;;;16.10;46.11
77263;BME280;66373;52.334;4.806;2024-01-10T06:29:07;103010.66;;;16.08;46.12
77263;BME280;66373;52.334;4.806;2024-01-10T06:31:34;103006.31;;;16.07;46.01
77263;BME280;66373;52.334;4.806;2024-01-10T06:34:01;103014.06;;;16.06;45.86
77263;BME280;66373;52.334;4.806;2024-01-10T06:36:28;103006.25;;;16.04;46.14
77263;BME280;66373;52.334;4.806;2024-01-10T06:38:56;103004.50;;;16.03;45.93
77263;BME280;66373;52.334;4.806;2024-01-10T06:41:23;103003.63;;;16.03;45.98
77263;BME280;66373;52.334;4.806;2024-01-10T06:43:52;102993.16;;;16.00;46.19
77263;BME280;66373;52.334;4.806;2024-01-10T06:46:20;103002.72;;;16.01;46.04
77263;BME280;66373;52.334;4.806;2024-01-10T06:48:47;103008.75;;;16.00;46.33
77263;BME280;66373;52.334;4.806;2024-01-10T06:51:15;102999.19;;;15.99;46.18
77263;BME280;66373;52.334;4.806;2024-01-10T06:53:43;103008.75;;;16.00;46.20
77263;BME280;66373;52.334;4.806;2024-01-10T06:56:10;102994.78;;;15.94;46.39
77263;BME280;66373;52.334;4.806;2024-01-10T06:58:38;102999.16;;;15.97;46.37
77263;BME280;66373;52.334;4.806;2024-01-10T07:01:11;102999.97;;;15.94;46.14
77263;BME280;66373;52.334;4.806;2024-01-10T07:03:40;103005.25;;;15.98;46.24
77263;BME280;66373;52.334;4.806;2024-01-10T07:06:07;103005.19;;;15.96;46.20
77263;BME280;66373;52.334;4.806;2024-01-10T07:08:34;102993.06;;;15.95;46.42
77263;BME280;66373;52.334;4.806;2024-01-10T07:11:02;102992.19;;;15.94;45.99
77263;BME280;66373;52.334;4.806;2024-01-10T07:13:29;102978.16;;;15.85;46.23
77263;BME280;66373;52.334;4.806;2024-01-10T07:15:57;102994.72;;;15.91;45.99
77263;BME280;66373;52.334;4.806;2024-01-10T07:18:29;103005.09;;;15.91;46.23
77263;BME280;66373;52.334;4.806;2024-01-10T07:20:56;103007.69;;;15.91;46.59
77263;BME280;66373;52.334;4.806;2024-01-10T07:23:24;103017.22;;;15.92;46.25
77263;BME280;66373;52.334;4.806;2024-01-10T07:25:51;103010.22;;;15.88;46.62
77263;BME280;66373;52.334;4.806;2024-01-10T07:28:19;103013.72;;;15.90;46.35
77263;BME280;66373;52.334;4.806;2024-01-10T07:30:46;103026.78;;;15.93;46.23
77263;BME280;66373;52.334;4.806;2024-01-10T07:33:13;103020.75;;;15.94;46.50
77263;BME280;66373;52.334;4.806;2024-01-10T07:35:42;103015.53;;;15.94;46.29
77263;BME280;66373;52.334;4.806;2024-01-10T07:38:09;103021.66;;;15.97;46.34
77263;BME280;66373;52.334;4.806;2024-01-10T07:40:36;103018.19;;;15.96;46.35
77263;BME280;66373;52.334;4.806;2024-01-10T07:43:04;103025.09;;;15.95;46.22
77263;BME280;66373;52.334;4.806;2024-01-10T07:45:31;103023.44;;;15.99;46.50
77263;BME280;66373;52.334;4.806;2024-01-10T07:47:59;103018.28;;;16.01;46.29
77263;BME280;66373;52.334;4.806;2024-01-10T07:50:26;103029.53;;;16.01;46.27
77263;BME280;66373;52.334;4.806;2024-01-10T07:52:55;103031.34;;;16.04;46.21
77263;BME280;66373;52.334;4.806;2024-01-10T07:55:22;103040.03;;;16.06;46.29
77263;BME280;66373;52.334;4.806;2024-01-10T07:57:50;103036.59;;;16.07;46.31
77263;BME280;66373;52.334;4.806;2024-01-10T08:00:17;103046.97;;;16.07;46.15
77263;BME280;66373;52.334;4.806;2024-01-10T08:02:46;103052.19;;;16.07;46.11
77263;BME280;66373;52.334;4.806;2024-01-10T08:05:14;103048.78;;;16.09;46.37
77263;BME280;66373;52.334;4.806;2024-01-10T08:07:41;103034.91;;;16.09;46.22
77263;BME280;66373;52.334;4.806;2024-01-10T08:10:10;103035.78;;;16.09;46.30
77263;BME280;66373;52.334;4.806;2024-01-10T08:12:39;103039.25;;;16.10;46.08
77263;BME280;66373;52.334;4.806;2024-01-10T08:15:08;103045.22;;;16.06;46.10
77263;BME280;66373;52.334;4.806;2024-01-10T08:17:36;103044.47;;;16.10;46.11
77263;BME280;66373;52.334;4.806;2024-01-10T08:20:04;103050.53;;;16.12;46.07
77263;BME280;66373;52.334;4.806;2024-01-10T08:22:32;103041.03;;;16.12;45.94
77263;BME280;66373;52.334;4.806;2024-01-10T08:24:59;103040.16;;;16.12;46.07
77263;BME280;66373;52.334;4.806;2024-01-10T08:27:28;103037.53;;;16.12;46.09
77263;BME280;66373;52.334;4.806;2024-01-10T08:29:55;103045.41;;;16.15;45.92
77263;BME280;66373;52.334;4.806;2024-01-10T08:32:22;103046.28;;;16.15;46.26
77263;BME280;66373;52.334;4.806;2024-01-10T08:34:49;103038.53;;;16.17;46.00
77263;BME280;66373;52.334;4.806;2024-01-10T08:37:17;103038.53;;;16.17;46.01
77263;BME280;66373;52.334;4.806;2024-01-10T08:39:44;103039.41;;;16.17;46.06
77263;BME280;66373;52.334;4.806;2024-01-10T08:42:11;103042.03;;;16.19;46.10
77263;BME280;66373;52.334;4.806;2024-01-10T08:44:40;103042.94;;;16.21;45.99
77263;BME280;66373;52.334;4.806;2024-01-10T08:47:07;103043.00;;;16.22;45.88
77263;BME280;66373;52.334;4.806;2024-01-10T08:49:34;103037.78;;;16.22;45.87
77263;BME280;66373;52.334;4.806;2024-01-10T08:52:02;103048.25;;;16.25;45.79
77263;BME280;66373;52.334;4.806;2024-01-10T08:54:29;103042.19;;;16.25;45.64
77263;BME280;66373;52.334;4.806;2024-01-10T08:56:56;103045.72;;;16.28;45.74
77263;BME280;66373;52.334;4.806;2024-01-10T08:59:25;103044.84;;;16.28;45.75
77263;BME280;66373;52.334;4.806;2024-01-10T09:01:55;103044.00;;;16.29;45.80
77263;BME280;66373;52.334;4.806;2024-01-10T09:04:22;103041.44;;;16.31;45.86
77263;BME280;66373;52.334;4.806;2024-01-10T09:06:51;103028.41;;;16.29;45.65
77263;BME280;66373;52.334;4.806;2024-01-10T09:09:18;103025.03;;;16.33;45.79
77263;BME280;66373;52.334;4.806;2024-01-10T09:11:46;103028.56;;;16.35;45.74
77263;BME280;66373;52.334;4.806;2024-01-10T09:14:14;103027.72;;;16.38;45.73
77263;BME280;66373;52.334;4.806;2024-01-10T09:16:42;103009.53;;;16.36;45.57
77263;BME280;66373;52.334;4.806;2024-01-10T09:19:10;103011.25;;;16.37;45.55
77263;BME280;66373;52.334;4.806;2024-01-10T09:21:37;103019.94;;;16.39;45.46
77263;BME280;66373;52.334;4.806;2024-01-10T09:24:05;103028.66;;;16.41;45.51
77263;BME280;66373;52.334;4.806;2024-01-10T09:26:34;103012.19;;;16.41;45.50
77263;BME280;66373;52.334;4.806;2024-01-10T09:29:02;103015.72;;;16.44;45.52
77263;BME280;66373;52.334;4.806;2024-01-10T09:31:29;103016.63;;;16.46;45.45
77263;BME280;66373;52.334;4.806;2024-01-10T09:33:56;103019.25;;;16.46;45.43
77263;BME280;66373;52.334;4.806;2024-01-10T09:36:26;103017.59;;;16.50;45.35
77263;BME280;66373;52.334;4.806;2024-01-10T09:38:53;103028.00;;;16.51;45.39
77263;BME280;66373;52.334;4.806;2024-01-10T09:41:21;103034.97;;;16.52;45.39
77263;BME280;66373;52.334;4.806;2024-01-10T09:43:49;103028.06;;;16.54;45.43
77263;BME280;66373;52.334;4.806;2024-01-10T09:46:17;103032.41;;;16.55;45.37
77263;BME280;66373;52.334;4.806;2024-01-10T09:48:45;103023.78;;;16.56;45.36
77263;BME280;66373;52.334;4.806;2024-01-10T09:51:12;103019.50;;;16.58;45.23
77263;BME280;66373;52.334;4.806;2024-01-10T09:53:44;103027.31;;;16.60;45.34
77263;BME280;66373;52.334;4.806;2024-01-10T09:56:15;102997.75;;;16.53;45.21
77263;BME280;66373;52.334;4.806;2024-01-10T09:58:43;103024.75;;;16.63;45.32
77263;BME280;66373;52.334;4.806;2024-01-10T10:01:12;103009.94;;;16.57;45.20
77263;BME280;66373;52.334;4.806;2024-01-10T10:03:41;103015.34;;;16.67;45.47
77263;BME280;66373;52.334;4.806;2024-01-10T10:06:12;103022.28;;;16.68;45.17
77263;BME280;66373;52.334;4.806;2024-01-10T10:08:41;103025.78;;;16.70;45.15
77263;BME280;66373;52.334;4.806;2024-01-10T10:11:12;103025.81;;;16.71;45.21
77263;BME280;66373;52.334;4.806;2024-01-10T10:13:40;103024.09;;;16.72;45.16
77263;BME280;66373;52.334;4.806;2024-01-10T10:16:08;103015.50;;;16.74;45.17
77263;BME280;66373;52.334;4.806;2024-01-10T10:18:39;103020.72;;;16.76;45.00
77263;BME280;66373;52.334;4.806;2024-01-10T10:21:09;103008.50;;;16.72;45.09
77263;BME280;66373;52.334;4.806;2024-01-10T10:23:37;103011.03;;;16.69;45.08
77263;BME280;66373;52.334;4.806;2024-01-10T10:26:13;103015.41;;;16.70;44.94
77263;BME280;66373;52.334;4.806;2024-01-10T10:28:45;103011.88;;;16.68;45.13
77263;BME280;66373;52.334;4.806;2024-01-10T10:31:13;103013.56;;;16.66;45.21
77263;BME280;66373;52.334;4.806;2024-01-10T10:33:40;103007.53;;;16.67;45.12
77263;BME280;66373;52.334;4.806;2024-01-10T10:36:09;103016.16;;;16.64;45.23
77263;BME280;66373;52.334;4.806;2024-01-10T10:38:36;103008.31;;;16.62;45.04
77263;BME280;66373;52.334;4.806;2024-01-10T10:41:05;103023.84;;;16.59;45.28
77263;BME280;66373;52.334;4.806;2024-01-10T10:43:35;103011.63;;;16.55;45.02
77263;BME280;66373;52.334;4.806;2024-01-10T10:46:03;103019.41;;;16.54;45.01
77263;BME280;66373;52.334;4.806;2024-01-10T10:48:32;103014.19;;;16.54;45.13
77263;BME280;66373;52.334;4.806;2024-01-10T10:51:04;103015.94;;;16.53;45.17
77263;BME280;66373;52.334;4.806;2024-01-10T10:53:34;103018.47;;;16.50;45.06
77263;BME280;66373;52.334;4.806;2024-01-10T10:56:03;103017.53;;;16.48;44.92
77263;BME280;66373;52.334;4.806;2024-01-10T10:58:37;103019.25;;;16.46;45.20
77263;BME280;66373;52.334;4.806;2024-01-10T11:01:07;103013.13;;;16.44;45.13
77263;BME280;66373;52.334;4.806;2024-01-10T11:03:35;103019.16;;;16.43;45.14
77263;BME280;66373;52.334;4.806;2024-01-10T11:06:04;103018.25;;;16.41;45.20
77263;BME280;66373;52.334;4.806;2024-01-10T11:08:35;103025.16;;;16.39;44.95
77263;BME280;66373;52.334;4.806;2024-01-10T11:11:04;103019.03;;;16.37;44.76
77263;BME280;66373;52.334;4.806;2024-01-10T11:13:50;103028.56;;;16.35;44.94
77263;BME280;66373;52.334;4.806;2024-01-10T11:16:46;103005.88;;;16.28;44.76
77263;BME280;66373;52.334;4.806;2024-01-10T11:20:07;103021.53;;;16.31;44.94
77263;BME280;66373;52.334;4.806;2024-01-10T11:22:46;103015.44;;;16.29;44.98
77263;BME280;66373;52.334;4.806;2024-01-10T11:25:19;103005.88;;;16.28;45.05
77263;BME280;66373;52.334;4.806;2024-01-10T11:27:51;103007.56;;;16.26;44.43
77263;BME280;66373;52.334;4.806;2024-01-10T11:30:33;103000.63;;;16.25;44.82
77263;BME280;66373;52.334;4.806;2024-01-10T11:33:02;102989.16;;;16.15;44.84
77263;BME280;66373;52.334;4.806;2024-01-10T11:35:29;102999.69;;;16.21;44.53
77263;BME280;66373;52.334;4.806;2024-01-10T11:37:59;102996.19;;;16.19;44.67
77263;BME280;66373;52.334;4.806;2024-01-10T11:40:48;102993.63;;;16.21;44.81
77263;BME280;66373;52.334;4.806;2024-01-10T11:43:15;102996.19;;;16.19;44.88
77263;BME280;66373;52.334;4.806;2024-01-10T11:45:55;102986.53;;;16.14;44.86
77263;BME280;66373;52.334;4.806;2024-01-10T11:48:26;102987.47;;;16.17;45.25
77263;BME280;66373;52.334;4.806;2024-01-10T11:50:54;102984.84;;;16.16;45.51
77263;BME280;66373;52.334;4.806;2024-01-10T11:53:38;102984.84;;;16.16;45.70
77263;BME280;66373;52.334;4.806;2024-01-10T11:56:09;102983.16;;;16.18;45.62
77263;BME280;66373;52.334;4.806;2024-01-10T11:58:52;102980.50;;;16.15;45.78
77263;BME280;66373;52.334;4.806;2024-01-10T12:01:22;102982.25;;;16.16;45.93
77263;BME280;66373;52.334;4.806;2024-01-10T12:03:51;102982.22;;;16.14;45.82
77263;BME280;66373;52.334;4.806;2024-01-10T12:06:21;102982.22;;;16.14;46.15
77263;BME280;66373;52.334;4.806;2024-01-10T12:08:48;102976.16;;;16.14;46.13
77263;BME280;66373;52.334;4.806;2024-01-10T12:11:16;102983.94;;;16.14;46.26
77263;BME280;66373;52.334;4.806;2024-01-10T12:13:44;102974.41;;;16.13;46.08
77263;BME280;66373;52.334;4.806;2024-01-10T12:16:12;102979.59;;;16.13;46.03
77263;BME280;66373;52.334;4.806;2024-01-10T12:18:42;102968.28;;;16.09;46.08
77263;BME280;66373;52.334;4.806;2024-01-10T12:21:09;102974.34;;;16.11;46.23
77263;BME280;66373;52.334;4.806;2024-01-10T12:23:38;102969.16;;;16.10;46.10
77263;BME280;66373;52.334;4.806;2024-01-10T12:26:07;102977.78;;;16.09;46.11
77263;BME280;66373;52.334;4.806;2024-01-10T12:28:35;102971.72;;;16.08;45.87
77263;BME280;66373;52.334;4.806;2024-01-10T12:31:03;102968.25;;;16.08;46.14
77263;BME280;66373;52.334;4.806;2024-01-10T12:33:31;102971.69;;;16.07;46.01
77263;BME280;66373;52.334;4.806;2024-01-10T12:36:07;102972.59;;;16.09;45.94
77263;BME280;66373;52.334;4.806;2024-01-10T12:38:35;102971.72;;;16.08;45.90
77263;BME280;66373;52.334;4.806;2024-01-10T12:41:03;102967.34;;;16.06;46.05
77263;BME280;66373;52.334;4.806;2024-01-10T12:43:31;102960.47;;;16.08;46.01
77263;BME280;66373;52.334;4.806;2024-01-10T12:46:09;102959.66;;;16.10;45.85
77263;BME280;66373;52.334;4.806;2024-01-10T12:48:37;102951.00;;;16.10;45.79
77263;BME280;66373;52.334;4.806;2024-01-10T12:51:08;102946.56;;;16.06;45.90
77263;BME280;66373;52.334;4.806;2024-01-10T12:53:37;102948.41;;;16.10;45.98
77263;BME280;66373;52.334;4.806;2024-01-10T12:56:06;102950.19;;;16.14;45.77